sensor_id;sensor_type;location;lat;lon;timestamp;pressure;altitude;pressure_sealevel;temperature;humidity
85039;BME280;75366;54.588;18.456;2024-01-30T00:01:40;102095.87;;;2.81;65.74
85039;BME280;75366;54.588;18.456;2024-01-30T00:06:43;102095.55;;;2.81;65.79
85039;BME280;75366;54.588;18.456;2024-01-30T00:11:47;102097.63;;;2.82;65.67
85039;BME280;75366;54.588;18.456;2024-01-30T00:16:51;102092.80;;;2.77;65.66
85039;BME280;75366;54.588;18.456;2024-01-30T00:21:54;102097.63;;;2.68;65.92
85039;BME280;75366;54.588;18.456;2024-01-30T00:26:57;102096.09;;;2.64;65.96
85039;BME280;75366;54.588;18.456;2024-01-30T00:32:00;102094.67;;;2.61;66.19
85039;BME280;75366;54.588;18.456;2024-01-30T00:37:03;102089.50;;;2.56;66.24
85039;BME280;75366;54.588;18.456;2024-01-30T00:42:06;102086.67;;;2.51;66.32
85039;BME280;75366;54.588;18.456;2024-01-30T00:47:10;102084.27;;;2.47;66.47
85039;BME280;75366;54.588;18.456;2024-01-30T00:52:13;102085.86;;;2.41;66.57
85039;BME280;75366;54.588;18.456;2024-01-30T00:57:16;102081.70;;;2.35;66.69
85039;BME280;75366;54.588;18.456;2024-01-30T01:02:19;102084.81;;;2.37;66.99
85039;BME280;75366;54.588;18.456;2024-01-30T01:07:23;102080.36;;;2.36;67.05
85039;BME280;75366;54.588;18.456;2024-01-30T01:12:26;102075.91;;;2.33;67.01
85039;BME280;75366;54.588;18.456;2024-01-30T01:17:30;102068.87;;;2.26;67.29
85039;BME280;75366;54.588;18.456;2024-01-30T01:22:33;102076.01;;;2.23;67.37
85039;BME280;75366;54.588;18.456;2024-01-30T01:27:37;102076.30;;;2.23;67.45
85039;BME280;75366;54.588;18.456;2024-01-30T01:32:44;102073.73;;;2.21;67.57
85039;BME280;75366;54.588;18.456;2024-01-30T01:37:54;102069.67;;;2.17;67.66
85039;BME280;75366;54.588;18.456;2024-01-30T01:42:58;102066.34;;;2.12;67.72
85039;BME280;75366;54.588;18.456;2024-01-30T01:48:01;102065.09;;;2.06;68.15
85039;BME280;75366;54.588;18.456;2024-01-30T01:53:05;102062.68;;;2.09;68.19
85039;BME280;75366;54.588;18.456;2024-01-30T01:58:10;102058.96;;;2.02;68.24
85039;BME280;75366;54.588;18.456;2024-01-30T02:03:18;102057.82;;;1.94;68.29
85039;BME280;75366;54.588;18.456;2024-01-30T02:08:24;102054.39;;;1.85;68.71
85039;BME280;75366;54.588;18.456;2024-01-30T02:13:27;102051.15;;;1.86;68.84
85039;BME280;75366;54.588;18.456;2024-01-30T02:18:31;102047.02;;;1.81;68.85
85039;BME280;75366;54.588;18.456;2024-01-30T02:23:34;102050.53;;;1.77;68.99
85039;BME280;75366;54.588;18.456;2024-01-30T02:28:37;102046.35;;;1.74;69.14
85039;BME280;75366;54.588;18.456;2024-01-30T02:33:40;102046.91;;;1.73;69.29
85039;BME280;75366;54.588;18.456;2024-01-30T02:38:43;102052.71;;;1.73;69.28
85039;BME280;75366;54.588;18.456;2024-01-30T02:43:47;102051.30;;;1.71;69.24
85039;BME280;75366;54.588;18.456;2024-01-30T02:48:50;102051.22;;;1.63;69.30
85039;BME280;75366;54.588;18.456;2024-01-30T02:53:53;102043.73;;;1.52;69.80
85039;BME280;75366;54.588;18.456;2024-01-30T02:58:56;102051.23;;;1.52;69.88
85039;BME280;75366;54.588;18.456;2024-01-30T03:03:59;102052.00;;;1.47;70.07
85039;BME280;75366;54.588;18.456;2024-01-30T03:09:02;102052.38;;;1.39;70.45
85039;BME280;75366;54.588;18.456;2024-01-30T03:14:07;102050.08;;;1.36;70.50
85039;BME280;75366;54.588;18.456;2024-01-30T03:19:13;102045.61;;;1.39;70.66
85039;BME280;75366;54.588;18.456;2024-01-30T03:24:17;102045.25;;;1.39;70.52
85039;BME280;75366;54.588;18.456;2024-01-30T03:29:19;102049.21;;;1.35;70.77
85039;BME280;75366;54.588;18.456;2024-01-30T03:34:23;102043.88;;;1.29;70.78
85039;BME280;75366;54.588;18.456;2024-01-30T03:39:26;102032.82;;;1.23;71.18
85039;BME280;75366;54.588;18.456;2024-01-30T03:44:29;102031.16;;;1.22;71.22
85039;BME280;75366;54.588;18.456;2024-01-30T03:49:32;102028.97;;;1.23;71.31
85039;BME280;75366;54.588;18.456;2024-01-30T03:54:35;102024.80;;;1.26;71.23
85039;BME280;75366;54.588;18.456;2024-01-30T03:59:41;102028.63;;;1.30;71.37
85039;BME280;75366;54.588;18.456;2024-01-30T04:04:44;102022.81;;;1.26;71.36
85039;BME280;75366;54.588;18.456;2024-01-30T04:09:47;102023.27;;;1.31;71.35
85039;BME280;75366;54.588;18.456;2024-01-30T04:14:50;102018.89;;;1.33;71.37
85039;BME280;75366;54.588;18.456;2024-01-30T04:19:53;102026.38;;;1.39;71.11
85039;BME280;75366;54.588;18.456;2024-01-30T04:24:57;102033.77;;;1.43;71.18
85039;BME280;75366;54.588;18.456;2024-01-30T04:29:59;102036.31;;;1.42;71.14
85039;BME280;75366;54.588;18.456;2024-01-30T04:35:03;102034.37;;;1.40;71.34
85039;BME280;75366;54.588;18.456;2024-01-30T04:40:13;102027.98;;;1.42;71.20
85039;BME280;75366;54.588;18.456;2024-01-30T04:45:16;102024.98;;;1.44;71.45
85039;BME280;75366;54.588;18.456;2024-01-30T04:50:19;102020.80;;;1.48;71.29
85039;BME280;75366;54.588;18.456;2024-01-30T04:55:22;102024.89;;;1.47;71.31
85039;BME280;75366;54.588;18.456;2024-01-30T05:00:25;102024.38;;;1.49;71.42
85039;BME280;75366;54.588;18.456;2024-01-30T05:05:28;102024.99;;;1.50;71.24
85039;BME280;75366;54.588;18.456;2024-01-30T05:10:31;102024.67;;;1.46;71.41
85039;BME280;75366;54.588;18.456;2024-01-30T05:15:34;102029.27;;;1.46;71.42
85039;BME280;75366;54.588;18.456;2024-01-30T05:20:37;102028.64;;;1.46;71.41
85039;BME280;75366;54.588;18.456;2024-01-30T05:25:40;102021.95;;;1.45;71.48
85039;BME280;75366;54.588;18.456;2024-01-30T05:30:42;102025.02;;;1.44;71.52
85039;BME280;75366;54.588;18.456;2024-01-30T05:35:45;102027.13;;;1.42;71.59
85039;BME280;75366;54.588;18.456;2024-01-30T05:41:08;102026.13;;;1.43;71.82
85039;BME280;75366;54.588;18.456;2024-01-30T05:46:31;102032.59;;;1.48;71.85
85039;BME280;75366;54.588;18.456;2024-01-30T05:51:54;102035.29;;;1.49;71.61
85039;BME280;75366;54.588;18.456;2024-01-30T05:57:17;102041.24;;;1.51;71.69
85039;BME280;75366;54.588;18.456;2024-01-30T06:02:39;102039.77;;;1.54;71.59
85039;BME280;75366;54.588;18.456;2024-01-30T06:08:02;102036.39;;;1.52;71.50
85039;BME280;75366;54.588;18.456;2024-01-30T06:13:05;102032.88;;;1.50;71.60
85039;BME280;75366;54.588;18.456;2024-01-30T06:18:08;102028.27;;;1.51;71.50
85039;BME280;75366;54.588;18.456;2024-01-30T06:23:11;102031.30;;;1.54;71.66
85039;BME280;75366;54.588;18.456;2024-01-30T06:28:15;102026.11;;;1.55;71.55
85039;BME280;75366;54.588;18.456;2024-01-30T06:33:38;102026.73;;;1.56;71.43
85039;BME280;75366;54.588;18.456;2024-01-30T06:39:02;102027.94;;;1.62;71.45
85039;BME280;75366;54.588;18.456;2024-01-30T06:44:05;102021.64;;;1.69;71.31
85039;BME280;75366;54.588;18.456;2024-01-30T06:49:10;102024.92;;;1.75;71.16
85039;BME280;75366;54.588;18.456;2024-01-30T06:54:33;102020.14;;;1.82;70.70
85039;BME280;75366;54.588;18.456;2024-01-30T06:59:56;102013.15;;;1.93;70.53
85039;BME280;75366;54.588;18.456;2024-01-30T07:04:59;102010.48;;;2.01;70.25
85039;BME280;75366;54.588;18.456;2024-01-30T07:10:02;102018.30;;;2.02;70.25
85039;BME280;75366;54.588;18.456;2024-01-30T07:15:06;102024.52;;;2.05;70.09
85039;BME280;75366;54.588;18.456;2024-01-30T07:20:12;102031.35;;;2.09;70.22
85039;BME280;75366;54.588;18.456;2024-01-30T07:25:19;102029.55;;;2.06;70.26
85039;BME280;75366;54.588;18.456;2024-01-30T07:30:24;102027.59;;;2.06;70.20
85039;BME280;75366;54.588;18.456;2024-01-30T07:35:47;102024.35;;;2.12;70.05
85039;BME280;75366;54.588;18.456;2024-01-30T07:41:09;102029.77;;;2.13;70.19
85039;BME280;75366;54.588;18.456;2024-01-30T07:46:12;102029.54;;;2.10;70.17
85039;BME280;75366;54.588;18.456;2024-01-30T07:51:15;102032.73;;;2.08;70.06
85039;BME280;75366;54.588;18.456;2024-01-30T07:56:38;102032.59;;;2.07;70.24
85039;BME280;75366;54.588;18.456;2024-01-30T08:02:01;102035.51;;;2.06;70.39
85039;BME280;75366;54.588;18.456;2024-01-30T08:07:23;102034.04;;;2.03;70.37
85039;BME280;75366;54.588;18.456;2024-01-30T08:12:27;102041.02;;;2.02;70.59
85039;BME280;75366;54.588;18.456;2024-01-30T08:17:50;102035.51;;;2.04;70.61
85039;BME280;75366;54.588;18.456;2024-01-30T08:22:59;102030.36;;;2.07;70.72
85039;BME280;75366;54.588;18.456;2024-01-30T08:28:03;102029.45;;;2.09;70.58
85039;BME280;75366;54.588;18.456;2024-01-30T08:33:07;102027.82;;;2.13;70.47
85039;BME280;75366;54.588;18.456;2024-01-30T08:38:09;102025.55;;;2.24;70.43
85039;BME280;75366;54.588;18.456;2024-01-30T08:43:15;102021.05;;;2.32;70.12
85039;BME280;75366;54.588;18.456;2024-01-30T08:48:18;102022.95;;;2.39;70.14
85039;BME280;75366;54.588;18.456;2024-01-30T08:53:21;102029.55;;;2.49;69.95
85039;BME280;75366;54.588;18.456;2024-01-30T08:58:24;102031.18;;;2.61;69.64
85039;BME280;75366;54.588;18.456;2024-01-30T09:03:27;102026.13;;;2.72;69.19
85039;BME280;75366;54.588;18.456;2024-01-30T09:08:30;102025.67;;;2.80;68.89
85039;BME280;75366;54.588;18.456;2024-01-30T09:13:33;102022.86;;;2.87;69.15
85039;BME280;75366;54.588;18.456;2024-01-30T09:18:56;102023.66;;;3.05;68.48
85039;BME280;75366;54.588;18.456;2024-01-30T09:24:19;102017.27;;;3.26;67.82
85039;BME280;75366;54.588;18.456;2024-01-30T09:29:22;102017.61;;;3.49;67.30
85039;BME280;75366;54.588;18.456;2024-01-30T09:34:25;102017.95;;;3.67;67.37
85039;BME280;75366;54.588;18.456;2024-01-30T09:39:28;102019.54;;;3.82;67.06
85039;BME280;75366;54.588;18.456;2024-01-30T09:44:34;102013.09;;;4.02;66.60
85039;BME280;75366;54.588;18.456;2024-01-30T09:49:38;102008.23;;;4.17;66.92
85039;BME280;75366;54.588;18.456;2024-01-30T09:54:41;102008.15;;;4.37;66.09
85039;BME280;75366;54.588;18.456;2024-01-30T09:59:44;101997.92;;;4.55;65.50
85039;BME280;75366;54.588;18.456;2024-01-30T10:04:48;102001.69;;;4.71;64.90
85039;BME280;75366;54.588;18.456;2024-01-30T10:09:52;102001.23;;;4.83;64.93
85039;BME280;75366;54.588;18.456;2024-01-30T10:14:56;101990.96;;;4.93;64.65
85039;BME280;75366;54.588;18.456;2024-01-30T10:20:04;101982.10;;;5.04;64.87
85039;BME280;75366;54.588;18.456;2024-01-30T10:25:28;101979.06;;;5.22;65.19
85039;BME280;75366;54.588;18.456;2024-01-30T10:30:58;101974.27;;;5.40;64.56
85039;BME280;75366;54.588;18.456;2024-01-30T10:36:07;101969.11;;;5.58;64.61
85039;BME280;75366;54.588;18.456;2024-01-30T10:41:11;101965.55;;;5.69;64.81
85039;BME280;75366;54.588;18.456;2024-01-30T10:46:37;101960.17;;;5.79;64.77
85039;BME280;75366;54.588;18.456;2024-01-30T10:52:01;101957.95;;;5.89;64.55
85039;BME280;75366;54.588;18.456;2024-01-30T10:57:25;101955.46;;;5.99;64.54
85039;BME280;75366;54.588;18.456;2024-01-30T11:02:29;101956.90;;;6.13;64.67
85039;BME280;75366;54.588;18.456;2024-01-30T11:07:42;101957.58;;;6.22;64.38
85039;BME280;75366;54.588;18.456;2024-01-30T11:13:13;101942.52;;;6.28;64.68
85039;BME280;75366;54.588;18.456;2024-01-30T11:18:36;101940.95;;;6.37;64.73
85039;BME280;75366;54.588;18.456;2024-01-30T11:23:40;101933.00;;;6.45;64.87
85039;BME280;75366;54.588;18.456;2024-01-30T11:28:52;101919.65;;;6.51;64.84
85039;BME280;75366;54.588;18.456;2024-01-30T11:33:56;101913.80;;;6.58;65.00
85039;BME280;75366;54.588;18.456;2024-01-30T11:38:59;101905.64;;;6.65;64.68
85039;BME280;75366;54.588;18.456;2024-01-30T11:44:03;101897.73;;;6.76;64.22
85039;BME280;75366;54.588;18.456;2024-01-30T11:49:06;101895.79;;;6.92;64.49
85039;BME280;75366;54.588;18.456;2024-01-30T11:54:09;101891.50;;;7.12;64.36
85039;BME280;75366;54.588;18.456;2024-01-30T11:59:13;101886.54;;;7.26;64.47
85039;BME280;75366;54.588;18.456;2024-01-30T12:04:16;101885.50;;;7.37;64.28
85039;BME280;75366;54.588;18.456;2024-01-30T12:09:39;101881.79;;;7.44;64.57
85039;BME280;75366;54.588;18.456;2024-01-30T12:14:43;101879.95;;;7.47;64.90
85039;BME280;75366;54.588;18.456;2024-01-30T12:19:47;101878.04;;;7.48;64.69
85039;BME280;75366;54.588;18.456;2024-01-30T12:24:50;101869.36;;;7.47;64.95
85039;BME280;75366;54.588;18.456;2024-01-30T12:29:57;101871.20;;;7.49;65.43
85039;BME280;75366;54.588;18.456;2024-01-30T12:35:01;101870.83;;;7.55;66.18
85039;BME280;75366;54.588;18.456;2024-01-30T12:40:04;101868.83;;;7.66;66.51
85039;BME280;75366;54.588;18.456;2024-01-30T12:45:09;101867.45;;;7.73;66.37
85039;BME280;75366;54.588;18.456;2024-01-30T12:50:13;101865.63;;;7.79;66.59
85039;BME280;75366;54.588;18.456;2024-01-30T12:55:18;101869.21;;;7.80;66.45
85039;BME280;75366;54.588;18.456;2024-01-30T13:00:22;101863.14;;;7.81;66.62
85039;BME280;75366;54.588;18.456;2024-01-30T13:05:25;101864.46;;;7.91;66.66
85039;BME280;75366;54.588;18.456;2024-01-30T13:10:28;101858.69;;;7.99;66.82
85039;BME280;75366;54.588;18.456;2024-01-30T13:15:32;101855.24;;;8.08;66.65
85039;BME280;75366;54.588;18.456;2024-01-30T13:20:35;101856.73;;;8.13;66.43
85039;BME280;75366;54.588;18.456;2024-01-30T13:25:38;101850.40;;;8.11;64.65
85039;BME280;75366;54.588;18.456;2024-01-30T13:30:41;101844.39;;;8.02;64.11
85039;BME280;75366;54.588;18.456;2024-01-30T13:35:44;101838.10;;;7.93;63.41
85039;BME280;75366;54.588;18.456;2024-01-30T13:40:47;101831.77;;;7.78;63.10
85039;BME280;75366;54.588;18.456;2024-01-30T13:45:50;101829.26;;;7.65;63.11
85039;BME280;75366;54.588;18.456;2024-01-30T13:50:54;101833.91;;;7.51;62.70
85039;BME280;75366;54.588;18.456;2024-01-30T13:55:56;101833.91;;;7.34;62.15
85039;BME280;75366;54.588;18.456;2024-01-30T14:01:00;101837.47;;;7.21;62.11
85039;BME280;75366;54.588;18.456;2024-01-30T14:06:03;101833.67;;;7.06;62.75
85039;BME280;75366;54.588;18.456;2024-01-30T14:11:07;101833.45;;;6.90;62.71
85039;BME280;75366;54.588;18.456;2024-01-30T14:16:10;101831.26;;;6.73;62.59
85039;BME280;75366;54.588;18.456;2024-01-30T14:21:13;101833.80;;;6.60;62.73
85039;BME280;75366;54.588;18.456;2024-01-30T14:26:16;101839.45;;;6.50;63.16
85039;BME280;75366;54.588;18.456;2024-01-30T14:31:19;101840.61;;;6.38;63.13
85039;BME280;75366;54.588;18.456;2024-01-30T14:36:24;101833.48;;;6.31;63.34
85039;BME280;75366;54.588;18.456;2024-01-30T14:41:31;101836.98;;;6.26;63.52
85039;BME280;75366;54.588;18.456;2024-01-30T14:46:34;101833.74;;;6.15;62.85
85039;BME280;75366;54.588;18.456;2024-01-30T14:51:37;101831.16;;;6.04;62.98
85039;BME280;75366;54.588;18.456;2024-01-30T14:56:40;101832.73;;;5.94;63.15
85039;BME280;75366;54.588;18.456;2024-01-30T15:01:43;101831.76;;;5.79;63.48
85039;BME280;75366;54.588;18.456;2024-01-30T15:06:48;101833.69;;;5.66;63.57
85039;BME280;75366;54.588;18.456;2024-01-30T15:11:52;101827.14;;;5.52;64.13
85039;BME280;75366;54.588;18.456;2024-01-30T15:16:55;101816.39;;;5.39;64.28
85039;BME280;75366;54.588;18.456;2024-01-30T15:21:59;101816.85;;;5.31;64.43
85039;BME280;75366;54.588;18.456;2024-01-30T15:27:02;101816.98;;;5.23;64.60
85039;BME280;75366;54.588;18.456;2024-01-30T15:32:06;101820.08;;;5.14;64.83
85039;BME280;75366;54.588;18.456;2024-01-30T15:37:09;101819.89;;;5.05;65.23
85039;BME280;75366;54.588;18.456;2024-01-30T15:42:12;101808.31;;;4.97;65.43
85039;BME280;75366;54.588;18.456;2024-01-30T15:47:15;101814.08;;;4.95;65.24
85039;BME280;75366;54.588;18.456;2024-01-30T15:52:18;101820.40;;;4.93;65.58
85039;BME280;75366;54.588;18.456;2024-01-30T15:57:21;101812.39;;;4.87;65.53
85039;BME280;75366;54.588;18.456;2024-01-30T16:02:27;101813.73;;;4.77;65.83
85039;BME280;75366;54.588;18.456;2024-01-30T16:07:32;101820.77;;;4.64;66.22
85039;BME280;75366;54.588;18.456;2024-01-30T16:12:35;101819.91;;;4.57;66.54
85039;BME280;75366;54.588;18.456;2024-01-30T16:17:38;101818.61;;;4.52;66.79
85039;BME280;75366;54.588;18.456;2024-01-30T16:22:41;101827.77;;;4.44;67.32
85039;BME280;75366;54.588;18.456;2024-01-30T16:27:45;101827.50;;;4.32;67.47
85039;BME280;75366;54.588;18.456;2024-01-30T16:32:47;101823.26;;;4.25;67.75
85039;BME280;75366;54.588;18.456;2024-01-30T16:37:50;101820.66;;;4.20;67.79
85039;BME280;75366;54.588;18.456;2024-01-30T16:42:53;101807.72;;;4.09;67.98
85039;BME280;75366;54.588;18.456;2024-01-30T16:47:58;101811.97;;;3.99;68.29
85039;BME280;75366;54.588;18.456;2024-01-30T16:53:01;101808.16;;;3.94;68.47
85039;BME280;75366;54.588;18.456;2024-01-30T16:58:04;101806.09;;;3.85;68.69
85039;BME280;75366;54.588;18.456;2024-01-30T17:03:07;101800.48;;;3.76;68.93
85039;BME280;75366;54.588;18.456;2024-01-30T17:08:33;101798.05;;;3.74;68.89
85039;BME280;75366;54.588;18.456;2024-01-30T17:13:36;101794.88;;;3.71;69.11
85039;BME280;75366;54.588;18.456;2024-01-30T17:18:58;101794.66;;;3.65;69.19
85039;BME280;75366;54.588;18.456;2024-01-30T17:24:02;101787.08;;;3.51;69.31
85039;BME280;75366;54.588;18.456;2024-01-30T17:29:05;101795.65;;;3.57;69.45
85039;BME280;75366;54.588;18.456;2024-01-30T17:34:08;101781.58;;;3.55;69.57
85039;BME280;75366;54.588;18.456;2024-01-30T17:39:11;101771.56;;;3.51;69.87
85039;BME280;75366;54.588;18.456;2024-01-30T17:44:14;101768.97;;;3.50;70.09
85039;BME280;75366;54.588;18.456;2024-01-30T17:49:17;101768.45;;;3.52;70.04
85039;BME280;75366;54.588;18.456;2024-01-30T17:54:20;101768.05;;;3.47;70.13
85039;BME280;75366;54.588;18.456;2024-01-30T17:59:23;101766.59;;;3.43;70.47
85039;BME280;75366;54.588;18.456;2024-01-30T18:04:26;101762.07;;;3.44;70.43
85039;BME280;75366;54.588;18.456;2024-01-30T18:09:29;101759.16;;;3.43;70.49
85039;BME280;75366;54.588;18.456;2024-01-30T18:14:33;101754.20;;;3.40;70.95
85039;BME280;75366;54.588;18.456;2024-01-30T18:19:36;101752.93;;;3.42;71.00
85039;BME280;75366;54.588;18.456;2024-01-30T18:24:39;101746.30;;;3.40;71.10
85039;BME280;75366;54.588;18.456;2024-01-30T18:29:42;101752.94;;;3.39;71.17
85039;BME280;75366;54.588;18.456;2024-01-30T18:34:45;101755.35;;;3.32;71.16
85039;BME280;75366;54.588;18.456;2024-01-30T18:39:48;101748.40;;;3.21;71.08
85039;BME280;75366;54.588;18.456;2024-01-30T18:44:51;101747.39;;;3.18;71.54
85039;BME280;75366;54.588;18.456;2024-01-30T18:49:54;101739.19;;;3.23;71.57
85039;BME280;75366;54.588;18.456;2024-01-30T18:54:58;101740.17;;;3.31;71.32
85039;BME280;75366;54.588;18.456;2024-01-30T19:00:01;101737.76;;;3.35;71.17
85039;BME280;75366;54.588;18.456;2024-01-30T19:05:04;101740.21;;;3.35;71.01
85039;BME280;75366;54.588;18.456;2024-01-30T19:10:09;101736.76;;;3.41;70.83
85039;BME280;75366;54.588;18.456;2024-01-30T19:15:12;101726.97;;;3.48;70.56
85039;BME280;75366;54.588;18.456;2024-01-30T19:20:15;101726.19;;;3.56;70.38
85039;BME280;75366;54.588;18.456;2024-01-30T19:25:18;101724.12;;;3.64;69.97
85039;BME280;75366;54.588;18.456;2024-01-30T19:30:21;101725.98;;;3.74;69.69
85039;BME280;75366;54.588;18.456;2024-01-30T19:35:24;101727.27;;;3.82;69.45
85039;BME280;75366;54.588;18.456;2024-01-30T19:40:28;101722.06;;;3.88;69.12
85039;BME280;75366;54.588;18.456;2024-01-30T19:45:31;101719.63;;;3.95;68.95
85039;BME280;75366;54.588;18.456;2024-01-30T19:50:34;101720.93;;;4.00;68.90
85039;BME280;75366;54.588;18.456;2024-01-30T19:55:37;101716.50;;;4.02;69.01
85039;BME280;75366;54.588;18.456;2024-01-30T20:00:40;101711.09;;;4.03;68.85
85039;BME280;75366;54.588;18.456;2024-01-30T20:05:43;101712.25;;;4.09;68.78
85039;BME280;75366;54.588;18.456;2024-01-30T20:11:14;101708.26;;;4.12;68.64
85039;BME280;75366;54.588;18.456;2024-01-30T20:16:41;101705.01;;;4.10;68.64
85039;BME280;75366;54.588;18.456;2024-01-30T20:22:05;101701.39;;;4.11;68.51
85039;BME280;75366;54.588;18.456;2024-01-30T20:27:08;101705.98;;;4.09;68.57
85039;BME280;75366;54.588;18.456;2024-01-30T20:32:11;101705.02;;;4.01;68.92
85039;BME280;75366;54.588;18.456;2024-01-30T20:37:14;101699.00;;;3.95;69.12
85039;BME280;75366;54.588;18.456;2024-01-30T20:42:17;101691.33;;;3.91;69.30
85039;BME280;75366;54.588;18.456;2024-01-30T20:47:20;101684.50;;;3.91;69.37
85039;BME280;75366;54.588;18.456;2024-01-30T20:52:23;101685.29;;;3.86;69.46
85039;BME280;75366;54.588;18.456;2024-01-30T20:57:26;101681.33;;;3.84;69.78
85039;BME280;75366;54.588;18.456;2024-01-30T21:02:29;101683.45;;;3.87;69.82
85039;BME280;75366;54.588;18.456;2024-01-30T21:07:32;101681.85;;;3.92;69.76
85039;BME280;75366;54.588;18.456;2024-01-30T21:12:35;101676.37;;;3.97;69.74
85039;BME280;75366;54.588;18.456;2024-01-30T21:17:38;101674.23;;;4.02;69.65
85039;BME280;75366;54.588;18.456;2024-01-30T21:22:41;101671.80;;;4.05;69.73
85039;BME280;75366;54.588;18.456;2024-01-30T21:27:44;101676.13;;;4.04;69.79
85039;BME280;75366;54.588;18.456;2024-01-30T21:32:55;101672.71;;;4.01;69.69
85039;BME280;75366;54.588;18.456;2024-01-30T21:37:58;101672.50;;;4.03;69.70
85039;BME280;75366;54.588;18.456;2024-01-30T21:43:02;101670.61;;;4.06;69.83
85039;BME280;75366;54.588;18.456;2024-01-30T21:48:05;101674.68;;;4.06;69.81
85039;BME280;75366;54.588;18.456;2024-01-30T21:53:16;101666.88;;;4.08;70.00
85039;BME280;75366;54.588;18.456;2024-01-30T21:58:18;101661.70;;;4.08;69.95
85039;BME280;75366;54.588;18.456;2024-01-30T22:03:27;101655.05;;;4.08;70.03
85039;BME280;75366;54.588;18.456;2024-01-30T22:08:30;101650.67;;;4.04;70.39
85039;BME280;75366;54.588;18.456;2024-01-30T22:13:33;101652.48;;;4.05;70.28
85039;BME280;75366;54.588;18.456;2024-01-30T22:18:36;101646.80;;;4.02;70.50
85039;BME280;75366;54.588;18.456;2024-01-30T22:23:39;101639.89;;;3.98;70.71
85039;BME280;75366;54.588;18.456;2024-01-30T22:28:42;101632.87;;;3.96;70.95
85039;BME280;75366;54.588;18.456;2024-01-30T22:33:47;101630.02;;;3.96;71.08
85039;BME280;75366;54.588;18.456;2024-01-30T22:38:49;101629.12;;;4.01;71.41
85039;BME280;75366;54.588;18.456;2024-01-30T22:43:52;101633.11;;;4.06;71.39
85039;BME280;75366;54.588;18.456;2024-01-30T22:48:55;101635.88;;;4.13;71.94
85039;BME280;75366;54.588;18.456;2024-01-30T22:53:58;101634.02;;;4.25;71.63
85039;BME280;75366;54.588;18.456;2024-01-30T22:59:02;101628.39;;;4.36;71.46
85039;BME280;75366;54.588;18.456;2024-01-30T23:04:05;101627.20;;;4.47;71.28
85039;BME280;75366;54.588;18.456;2024-01-30T23:09:08;101623.27;;;4.52;71.39
85039;BME280;75366;54.588;18.456;2024-01-30T23:14:12;101616.55;;;4.59;71.31
85039;BME280;75366;54.588;18.456;2024-01-30T23:26:43;101605.16;;;4.66;71.12
85039;BME280;75366;54.588;18.456;2024-01-30T23:32:58;101603.47;;;4.69;71.14
85039;BME280;75366;54.588;18.456;2024-01-30T23:49:52;101607.89;;;4.66;71.70
